sensor_id;sensor_type;location;lat;lon;timestamp;P1;durP1;ratioP1;P2;durP2;ratioP2
30862;SDS011;17573;55.922;37.540;2023-01-01T00:00:52;31.77;;;18.52;;
30862;SDS011;17573;55.922;37.540;2023-01-01T00:03:25;38.67;;;21.80;;
30862;SDS011;17573;55.922;37.540;2023-01-01T00:06:17;44.63;;;20.25;;
30862;SDS011;17573;55.922;37.540;2023-01-01T00:08:50;24.67;;;15.77;;
30862;SDS011;17573;55.922;37.540;2023-01-01T00:12:00;28.95;;;18.10;;
30862;SDS011;17573;55.922;37.540;2023-01-01T00:14:32;31.63;;;15.02;;
30862;SDS011;17573;55.922;37.540;2023-01-01T00:17:28;27.63;;;18.35;;
30862;SDS011;17573;55.922;37.540;2023-01-01T00:20:01;22.88;;;14.70;;
30862;SDS011;17573;55.922;37.540;2023-01-01T00:22:53;30.65;;;17.33;;
30862;SDS011;17573;55.922;37.540;2023-01-01T00:25:25;25.40;;;12.38;;
30862;SDS011;17573;55.922;37.540;2023-01-01T00:28:18;24.42;;;16.45;;
30862;SDS011;17573;55.922;37.540;2023-01-01T00:30:50;30.23;;;15.35;;
30862;SDS011;17573;55.922;37.540;2023-01-01T00:33:44;23.85;;;14.40;;
30862;SDS011;17573;55.922;37.540;2023-01-01T00:36:17;32.05;;;18.45;;
30862;SDS011;17573;55.922;37.540;2023-01-01T00:39:10;20.15;;;13.02;;
30862;SDS011;17573;55.922;37.540;2023-01-01T00:41:43;26.95;;;17.55;;
30862;SDS011;17573;55.922;37.540;2023-01-01T00:44:35;16.63;;;11.65;;
30862;SDS011;17573;55.922;37.540;2023-01-01T00:47:07;21.55;;;14.55;;
30862;SDS011;17573;55.922;37.540;2023-01-01T00:50:00;19.05;;;12.93;;
30862;SDS011;17573;55.922;37.540;2023-01-01T00:52:32;20.38;;;14.15;;
30862;SDS011;17573;55.922;37.540;2023-01-01T00:55:25;20.02;;;10.93;;
30862;SDS011;17573;55.922;37.540;2023-01-01T00:57:57;21.30;;;13.13;;
30862;SDS011;17573;55.922;37.540;2023-01-01T01:00:51;19.85;;;11.65;;
30862;SDS011;17573;55.922;37.540;2023-01-01T01:03:24;19.90;;;11.77;;
30862;SDS011;17573;55.922;37.540;2023-01-01T01:06:16;19.45;;;11.88;;
30862;SDS011;17573;55.922;37.540;2023-01-01T01:08:49;20.88;;;11.15;;
30862;SDS011;17573;55.922;37.540;2023-01-01T01:11:41;14.63;;;10.88;;
30862;SDS011;17573;55.922;37.540;2023-01-01T01:14:14;12.38;;;8.70;;
30862;SDS011;17573;55.922;37.540;2023-01-01T01:17:06;12.32;;;9.20;;
30862;SDS011;17573;55.922;37.540;2023-01-01T01:19:38;15.43;;;9.95;;
30862;SDS011;17573;55.922;37.540;2023-01-01T01:22:31;13.82;;;10.20;;
30862;SDS011;17573;55.922;37.540;2023-01-01T01:25:05;14.10;;;9.95;;
30862;SDS011;17573;55.922;37.540;2023-01-01T01:27:58;12.63;;;9.65;;
30862;SDS011;17573;55.922;37.540;2023-01-01T01:30:30;14.98;;;8.90;;
30862;SDS011;17573;55.922;37.540;2023-01-01T01:33:23;15.02;;;8.52;;
30862;SDS011;17573;55.922;37.540;2023-01-01T01:35:57;6.10;;;5.47;;
30862;SDS011;17573;55.922;37.540;2023-01-01T01:38:49;12.40;;;8.50;;
30862;SDS011;17573;55.922;37.540;2023-01-01T01:41:23;16.73;;;8.85;;
30862;SDS011;17573;55.922;37.540;2023-01-01T01:47:30;15.10;;;9.15;;
30862;SDS011;17573;55.922;37.540;2023-01-01T01:50:32;10.43;;;8.75;;
30862;SDS011;17573;55.922;37.540;2023-01-01T01:53:08;9.68;;;6.90;;
30862;SDS011;17573;55.922;37.540;2023-01-01T01:56:05;7.90;;;7.10;;
30862;SDS011;17573;55.922;37.540;2023-01-01T01:58:40;8.40;;;7.50;;
30862;SDS011;17573;55.922;37.540;2023-01-01T02:01:35;7.93;;;7.10;;
30862;SDS011;17573;55.922;37.540;2023-01-01T02:04:08;11.18;;;8.05;;
30862;SDS011;17573;55.922;37.540;2023-01-01T02:07:00;9.27;;;6.95;;
30862;SDS011;17573;55.922;37.540;2023-01-01T02:09:32;12.30;;;8.13;;
30862;SDS011;17573;55.922;37.540;2023-01-01T02:12:25;11.98;;;8.00;;
30862;SDS011;17573;55.922;37.540;2023-01-01T02:15:19;7.70;;;6.68;;
30862;SDS011;17573;55.922;37.540;2023-01-01T02:18:14;11.95;;;7.43;;
30862;SDS011;17573;55.922;37.540;2023-01-01T02:23:51;10.07;;;7.22;;
30862;SDS011;17573;55.922;37.540;2023-01-01T02:30:20;9.77;;;7.78;;
30862;SDS011;17573;55.922;37.540;2023-01-01T02:32:56;7.90;;;6.75;;
30862;SDS011;17573;55.922;37.540;2023-01-01T02:35:58;8.35;;;6.20;;
30862;SDS011;17573;55.922;37.540;2023-01-01T02:38:35;9.05;;;7.78;;
30862;SDS011;17573;55.922;37.540;2023-01-01T02:41:30;9.02;;;7.18;;
30862;SDS011;17573;55.922;37.540;2023-01-01T02:44:06;8.25;;;7.45;;
30862;SDS011;17573;55.922;37.540;2023-01-01T02:47:08;11.43;;;7.00;;
30862;SDS011;17573;55.922;37.540;2023-01-01T02:50:02;9.45;;;7.10;;
30862;SDS011;17573;55.922;37.540;2023-01-01T02:53:13;8.05;;;6.60;;
30862;SDS011;17573;55.922;37.540;2023-01-01T02:55:55;8.20;;;7.20;;
30862;SDS011;17573;55.922;37.540;2023-01-01T02:58:58;9.00;;;7.18;;
30862;SDS011;17573;55.922;37.540;2023-01-01T03:08:05;10.75;;;7.75;;
30862;SDS011;17573;55.922;37.540;2023-01-01T03:11:06;7.93;;;6.95;;
30862;SDS011;17573;55.922;37.540;2023-01-01T03:17:19;9.63;;;7.55;;
30862;SDS011;17573;55.922;37.540;2023-01-01T03:19:52;8.68;;;7.18;;
30862;SDS011;17573;55.922;37.540;2023-01-01T03:22:48;9.48;;;7.82;;
30862;SDS011;17573;55.922;37.540;2023-01-01T03:25:23;11.82;;;7.72;;
30862;SDS011;17573;55.922;37.540;2023-01-01T03:28:21;11.30;;;7.88;;
30862;SDS011;17573;55.922;37.540;2023-01-01T03:31:04;11.00;;;7.68;;
30862;SDS011;17573;55.922;37.540;2023-01-01T03:34:00;9.68;;;7.93;;
30862;SDS011;17573;55.922;37.540;2023-01-01T03:36:40;15.40;;;8.15;;
30862;SDS011;17573;55.922;37.540;2023-01-01T03:39:37;11.93;;;8.55;;
30862;SDS011;17573;55.922;37.540;2023-01-01T03:42:33;11.38;;;8.57;;
30862;SDS011;17573;55.922;37.540;2023-01-01T03:45:29;10.00;;;8.45;;
30862;SDS011;17573;55.922;37.540;2023-01-01T03:48:05;14.30;;;8.85;;
30862;SDS011;17573;55.922;37.540;2023-01-01T03:51:05;12.70;;;9.27;;
30862;SDS011;17573;55.922;37.540;2023-01-01T03:53:42;12.60;;;9.27;;
30862;SDS011;17573;55.922;37.540;2023-01-01T03:56:39;14.35;;;10.77;;
30862;SDS011;17573;55.922;37.540;2023-01-01T03:59:20;13.43;;;9.93;;
30862;SDS011;17573;55.922;37.540;2023-01-01T04:02:16;13.15;;;9.23;;
30862;SDS011;17573;55.922;37.540;2023-01-01T04:04:51;13.00;;;9.60;;
30862;SDS011;17573;55.922;37.540;2023-01-01T04:07:43;11.80;;;8.40;;
30862;SDS011;17573;55.922;37.540;2023-01-01T04:10:16;13.25;;;9.60;;
30862;SDS011;17573;55.922;37.540;2023-01-01T04:13:08;13.75;;;9.25;;
30862;SDS011;17573;55.922;37.540;2023-01-01T04:15:40;13.55;;;9.70;;
30862;SDS011;17573;55.922;37.540;2023-01-01T04:18:33;19.95;;;10.25;;
30862;SDS011;17573;55.922;37.540;2023-01-01T04:21:06;11.88;;;9.73;;
30862;SDS011;17573;55.922;37.540;2023-01-01T04:23:58;15.85;;;9.32;;
30862;SDS011;17573;55.922;37.540;2023-01-01T04:26:31;14.50;;;10.98;;
30862;SDS011;17573;55.922;37.540;2023-01-01T04:29:23;13.10;;;9.23;;
30862;SDS011;17573;55.922;37.540;2023-01-01T04:31:56;16.52;;;10.88;;
30862;SDS011;17573;55.922;37.540;2023-01-01T04:34:48;13.10;;;9.77;;
30862;SDS011;17573;55.922;37.540;2023-01-01T04:37:20;16.63;;;9.73;;
30862;SDS011;17573;55.922;37.540;2023-01-01T04:40:13;11.90;;;10.00;;
30862;SDS011;17573;55.922;37.540;2023-01-01T04:42:46;13.40;;;9.80;;
30862;SDS011;17573;55.922;37.540;2023-01-01T04:45:38;13.45;;;9.60;;
30862;SDS011;17573;55.922;37.540;2023-01-01T04:48:10;14.20;;;9.73;;
30862;SDS011;17573;55.922;37.540;2023-01-01T04:51:04;15.20;;;9.48;;
30862;SDS011;17573;55.922;37.540;2023-01-01T04:53:37;11.43;;;9.32;;
30862;SDS011;17573;55.922;37.540;2023-01-01T04:56:29;12.38;;;8.95;;
30862;SDS011;17573;55.922;37.540;2023-01-01T04:59:02;15.63;;;10.45;;
30862;SDS011;17573;55.922;37.540;2023-01-01T05:01:54;15.02;;;11.60;;
30862;SDS011;17573;55.922;37.540;2023-01-01T05:04:27;11.32;;;8.02;;
30862;SDS011;17573;55.922;37.540;2023-01-01T05:07:19;11.90;;;9.57;;
30862;SDS011;17573;55.922;37.540;2023-01-01T05:09:52;11.68;;;8.70;;
30862;SDS011;17573;55.922;37.540;2023-01-01T05:12:45;15.55;;;9.63;;
30862;SDS011;17573;55.922;37.540;2023-01-01T05:15:18;12.23;;;9.40;;
30862;SDS011;17573;55.922;37.540;2023-01-01T05:18:10;14.65;;;9.95;;
30862;SDS011;17573;55.922;37.540;2023-01-01T05:20:42;14.43;;;10.32;;
30862;SDS011;17573;55.922;37.540;2023-01-01T05:23:35;11.63;;;8.25;;
30862;SDS011;17573;55.922;37.540;2023-01-01T05:26:12;11.88;;;8.40;;
30862;SDS011;17573;55.922;37.540;2023-01-01T05:29:07;11.63;;;8.40;;
30862;SDS011;17573;55.922;37.540;2023-01-01T05:31:40;12.77;;;9.40;;
30862;SDS011;17573;55.922;37.540;2023-01-01T05:34:33;12.98;;;9.00;;
30862;SDS011;17573;55.922;37.540;2023-01-01T05:37:05;16.45;;;10.07;;
30862;SDS011;17573;55.922;37.540;2023-01-01T05:39:58;13.95;;;9.02;;
30862;SDS011;17573;55.922;37.540;2023-01-01T05:42:31;14.32;;;9.13;;
30862;SDS011;17573;55.922;37.540;2023-01-01T05:45:23;13.23;;;9.05;;
30862;SDS011;17573;55.922;37.540;2023-01-01T05:47:56;15.07;;;10.07;;
30862;SDS011;17573;55.922;37.540;2023-01-01T05:50:48;12.68;;;9.73;;
30862;SDS011;17573;55.922;37.540;2023-01-01T05:53:21;12.32;;;9.60;;
30862;SDS011;17573;55.922;37.540;2023-01-01T05:56:14;11.98;;;8.93;;
30862;SDS011;17573;55.922;37.540;2023-01-01T05:58:47;13.52;;;10.48;;
30862;SDS011;17573;55.922;37.540;2023-01-01T06:01:39;12.15;;;9.30;;
30862;SDS011;17573;55.922;37.540;2023-01-01T06:04:12;12.23;;;9.07;;
30862;SDS011;17573;55.922;37.540;2023-01-01T06:07:04;14.70;;;9.98;;
30862;SDS011;17573;55.922;37.540;2023-01-01T06:09:37;14.85;;;10.88;;
30862;SDS011;17573;55.922;37.540;2023-01-01T06:12:29;10.30;;;8.52;;
30862;SDS011;17573;55.922;37.540;2023-01-01T06:15:02;11.95;;;9.50;;
30862;SDS011;17573;55.922;37.540;2023-01-01T06:17:54;11.40;;;7.90;;
30862;SDS011;17573;55.922;37.540;2023-01-01T06:20:27;11.93;;;8.48;;
30862;SDS011;17573;55.922;37.540;2023-01-01T06:23:19;10.05;;;8.32;;
30862;SDS011;17573;55.922;37.540;2023-01-01T06:25:52;11.77;;;8.85;;
30862;SDS011;17573;55.922;37.540;2023-01-01T06:28:47;10.13;;;8.02;;
30862;SDS011;17573;55.922;37.540;2023-01-01T06:31:20;10.07;;;8.75;;
30862;SDS011;17573;55.922;37.540;2023-01-01T06:34:13;12.98;;;9.48;;
30862;SDS011;17573;55.922;37.540;2023-01-01T06:36:46;13.85;;;9.30;;
30862;SDS011;17573;55.922;37.540;2023-01-01T06:39:38;10.63;;;7.75;;
30862;SDS011;17573;55.922;37.540;2023-01-01T06:42:10;10.65;;;7.82;;
30862;SDS011;17573;55.922;37.540;2023-01-01T06:45:07;8.15;;;6.95;;
30862;SDS011;17573;55.922;37.540;2023-01-01T06:47:40;9.40;;;8.13;;
30862;SDS011;17573;55.922;37.540;2023-01-01T06:50:32;11.95;;;8.65;;
30862;SDS011;17573;55.922;37.540;2023-01-01T06:53:05;9.00;;;7.43;;
30862;SDS011;17573;55.922;37.540;2023-01-01T06:55:57;8.63;;;7.78;;
30862;SDS011;17573;55.922;37.540;2023-01-01T06:58:30;11.02;;;9.65;;
30862;SDS011;17573;55.922;37.540;2023-01-01T07:01:23;9.27;;;7.72;;
30862;SDS011;17573;55.922;37.540;2023-01-01T07:03:59;10.15;;;8.20;;
30862;SDS011;17573;55.922;37.540;2023-01-01T07:06:56;10.82;;;8.77;;
30862;SDS011;17573;55.922;37.540;2023-01-01T07:09:28;8.02;;;7.22;;
30862;SDS011;17573;55.922;37.540;2023-01-01T07:12:21;11.50;;;6.95;;
30862;SDS011;17573;55.922;37.540;2023-01-01T07:14:54;8.52;;;7.65;;
30862;SDS011;17573;55.922;37.540;2023-01-01T07:17:46;10.38;;;7.50;;
30862;SDS011;17573;55.922;37.540;2023-01-01T07:20:18;9.18;;;7.22;;
30862;SDS011;17573;55.922;37.540;2023-01-01T07:23:11;7.18;;;6.10;;
30862;SDS011;17573;55.922;37.540;2023-01-01T07:25:44;7.05;;;6.35;;
30862;SDS011;17573;55.922;37.540;2023-01-01T07:28:36;9.18;;;6.82;;
30862;SDS011;17573;55.922;37.540;2023-01-01T07:31:09;9.75;;;7.32;;
30862;SDS011;17573;55.922;37.540;2023-01-01T07:34:01;7.90;;;7.10;;
30862;SDS011;17573;55.922;37.540;2023-01-01T07:36:34;9.02;;;6.93;;
30862;SDS011;17573;55.922;37.540;2023-01-01T07:39:26;9.98;;;7.05;;
30862;SDS011;17573;55.922;37.540;2023-01-01T07:41:58;11.02;;;7.60;;
30862;SDS011;17573;55.922;37.540;2023-01-01T07:44:51;8.80;;;6.88;;
30862;SDS011;17573;55.922;37.540;2023-01-01T07:47:24;8.63;;;6.93;;
30862;SDS011;17573;55.922;37.540;2023-01-01T07:50:17;7.32;;;6.10;;
30862;SDS011;17573;55.922;37.540;2023-01-01T07:52:50;11.82;;;7.50;;
30862;SDS011;17573;55.922;37.540;2023-01-01T07:55:42;7.43;;;6.63;;
30862;SDS011;17573;55.922;37.540;2023-01-01T07:58:16;9.30;;;6.60;;
30862;SDS011;17573;55.922;37.540;2023-01-01T08:01:10;14.32;;;8.27;;
30862;SDS011;17573;55.922;37.540;2023-01-01T08:03:43;7.25;;;6.07;;
30862;SDS011;17573;55.922;37.540;2023-01-01T08:06:36;10.75;;;7.93;;
30862;SDS011;17573;55.922;37.540;2023-01-01T08:09:09;8.75;;;7.85;;
30862;SDS011;17573;55.922;37.540;2023-01-01T08:12:01;9.23;;;7.80;;
30862;SDS011;17573;55.922;37.540;2023-01-01T08:14:33;9.68;;;7.97;;
30862;SDS011;17573;55.922;37.540;2023-01-01T08:17:26;10.13;;;7.22;;
30862;SDS011;17573;55.922;37.540;2023-01-01T08:20:17;11.82;;;7.13;;
30862;SDS011;17573;55.922;37.540;2023-01-01T08:23:09;10.25;;;6.80;;
30862;SDS011;17573;55.922;37.540;2023-01-01T08:25:42;9.32;;;6.53;;
30862;SDS011;17573;55.922;37.540;2023-01-01T08:28:34;9.63;;;7.47;;
30862;SDS011;17573;55.922;37.540;2023-01-01T08:31:07;10.98;;;7.20;;
30862;SDS011;17573;55.922;37.540;2023-01-01T08:33:59;12.52;;;6.30;;
30862;SDS011;17573;55.922;37.540;2023-01-01T08:36:32;7.80;;;6.95;;
30862;SDS011;17573;55.922;37.540;2023-01-01T08:39:25;8.65;;;6.72;;
30862;SDS011;17573;55.922;37.540;2023-01-01T08:41:57;8.25;;;7.32;;
30862;SDS011;17573;55.922;37.540;2023-01-01T08:44:49;9.60;;;6.95;;
30862;SDS011;17573;55.922;37.540;2023-01-01T08:47:23;12.55;;;6.85;;
30862;SDS011;17573;55.922;37.540;2023-01-01T08:50:18;8.00;;;7.20;;
30862;SDS011;17573;55.922;37.540;2023-01-01T08:52:51;15.15;;;7.70;;
30862;SDS011;17573;55.922;37.540;2023-01-01T08:55:43;9.43;;;7.22;;
30862;SDS011;17573;55.922;37.540;2023-01-01T08:58:16;9.65;;;7.65;;
30862;SDS011;17573;55.922;37.540;2023-01-01T09:01:09;15.43;;;7.45;;
30862;SDS011;17573;55.922;37.540;2023-01-01T09:03:42;18.30;;;8.77;;
30862;SDS011;17573;55.922;37.540;2023-01-01T09:06:35;17.20;;;9.18;;
30862;SDS011;17573;55.922;37.540;2023-01-01T09:09:08;10.55;;;7.97;;
30862;SDS011;17573;55.922;37.540;2023-01-01T09:12:02;12.63;;;8.65;;
30862;SDS011;17573;55.922;37.540;2023-01-01T09:14:37;10.80;;;8.20;;
30862;SDS011;17573;55.922;37.540;2023-01-01T09:17:29;18.48;;;8.02;;
30862;SDS011;17573;55.922;37.540;2023-01-01T09:20:02;17.48;;;8.40;;
30862;SDS011;17573;55.922;37.540;2023-01-01T09:22:54;15.20;;;9.02;;
30862;SDS011;17573;55.922;37.540;2023-01-01T09:25:27;13.98;;;8.18;;
30862;SDS011;17573;55.922;37.540;2023-01-01T09:28:19;17.90;;;8.50;;
30862;SDS011;17573;55.922;37.540;2023-01-01T09:30:52;19.15;;;7.13;;
30862;SDS011;17573;55.922;37.540;2023-01-01T09:33:45;23.73;;;8.35;;
30862;SDS011;17573;55.922;37.540;2023-01-01T09:39:11;16.02;;;8.13;;
30862;SDS011;17573;55.922;37.540;2023-01-01T09:47:45;21.43;;;9.73;;
30862;SDS011;17573;55.922;37.540;2023-01-01T09:50:43;35.05;;;9.45;;
30862;SDS011;17573;55.922;37.540;2023-01-01T09:53:21;15.20;;;9.60;;
30862;SDS011;17573;55.922;37.540;2023-01-01T09:56:32;24.10;;;9.05;;
30862;SDS011;17573;55.922;37.540;2023-01-01T09:59:07;18.52;;;8.52;;
30862;SDS011;17573;55.922;37.540;2023-01-01T10:08:07;13.02;;;8.68;;
30862;SDS011;17573;55.922;37.540;2023-01-01T10:10:46;14.65;;;7.95;;
30862;SDS011;17573;55.922;37.540;2023-01-01T10:13:45;14.93;;;9.23;;
30862;SDS011;17573;55.922;37.540;2023-01-01T10:16:35;12.40;;;8.05;;
30862;SDS011;17573;55.922;37.540;2023-01-01T10:19:36;12.45;;;8.50;;
30862;SDS011;17573;55.922;37.540;2023-01-01T10:22:15;14.75;;;8.55;;
30862;SDS011;17573;55.922;37.540;2023-01-01T10:25:16;10.20;;;7.65;;
30862;SDS011;17573;55.922;37.540;2023-01-01T10:27:59;11.68;;;8.02;;
30862;SDS011;17573;55.922;37.540;2023-01-01T10:33:46;11.35;;;7.78;;
30862;SDS011;17573;55.922;37.540;2023-01-01T10:36:38;11.15;;;7.05;;
30862;SDS011;17573;55.922;37.540;2023-01-01T10:39:14;9.48;;;6.95;;
30862;SDS011;17573;55.922;37.540;2023-01-01T10:42:09;7.95;;;6.75;;
30862;SDS011;17573;55.922;37.540;2023-01-01T10:44:44;17.77;;;7.63;;
30862;SDS011;17573;55.922;37.540;2023-01-01T10:47:37;12.48;;;7.97;;
30862;SDS011;17573;55.922;37.540;2023-01-01T10:50:10;8.25;;;7.15;;
30862;SDS011;17573;55.922;37.540;2023-01-01T10:53:02;8.23;;;5.88;;
30862;SDS011;17573;55.922;37.540;2023-01-01T10:55:35;9.38;;;6.43;;
30862;SDS011;17573;55.922;37.540;2023-01-01T10:58:39;8.27;;;6.55;;
30862;SDS011;17573;55.922;37.540;2023-01-01T11:01:25;8.77;;;6.43;;
30862;SDS011;17573;55.922;37.540;2023-01-01T11:04:19;9.00;;;6.85;;
30862;SDS011;17573;55.922;37.540;2023-01-01T11:06:52;7.18;;;6.07;;
30862;SDS011;17573;55.922;37.540;2023-01-01T11:09:46;10.77;;;6.90;;
30862;SDS011;17573;55.922;37.540;2023-01-01T11:12:20;7.45;;;6.70;;
30862;SDS011;17573;55.922;37.540;2023-01-01T11:15:29;11.27;;;6.65;;
30862;SDS011;17573;55.922;37.540;2023-01-01T11:18:11;7.30;;;6.10;;
30862;SDS011;17573;55.922;37.540;2023-01-01T11:23:37;7.50;;;6.75;;
30862;SDS011;17573;55.922;37.540;2023-01-01T11:26:30;6.70;;;5.72;;
30862;SDS011;17573;55.922;37.540;2023-01-01T11:29:36;10.05;;;6.20;;
30862;SDS011;17573;55.922;37.540;2023-01-01T11:32:23;9.05;;;5.72;;
30862;SDS011;17573;55.922;37.540;2023-01-01T11:35:01;7.10;;;6.40;;
30862;SDS011;17573;55.922;37.540;2023-01-01T11:37:57;10.93;;;6.95;;
30862;SDS011;17573;55.922;37.540;2023-01-01T11:43:26;12.75;;;5.78;;
30862;SDS011;17573;55.922;37.540;2023-01-01T11:46:04;5.82;;;5.18;;
30862;SDS011;17573;55.922;37.540;2023-01-01T11:48:58;6.75;;;5.18;;
30862;SDS011;17573;55.922;37.540;2023-01-01T11:51:31;9.25;;;6.38;;
30862;SDS011;17573;55.922;37.540;2023-01-01T11:57:09;8.90;;;5.68;;
30862;SDS011;17573;55.922;37.540;2023-01-01T12:00:12;6.05;;;5.43;;
30862;SDS011;17573;55.922;37.540;2023-01-01T12:02:55;9.45;;;5.25;;
30862;SDS011;17573;55.922;37.540;2023-01-01T12:05:55;6.90;;;5.05;;
30862;SDS011;17573;55.922;37.540;2023-01-01T12:08:34;5.45;;;4.93;;
30862;SDS011;17573;55.922;37.540;2023-01-01T12:11:38;8.23;;;5.05;;
30862;SDS011;17573;55.922;37.540;2023-01-01T12:17:25;6.85;;;5.97;;
30862;SDS011;17573;55.922;37.540;2023-01-01T12:20:13;6.60;;;5.47;;
30862;SDS011;17573;55.922;37.540;2023-01-01T12:23:10;6.10;;;5.50;;
30862;SDS011;17573;55.922;37.540;2023-01-01T12:25:45;6.30;;;5.15;;
30862;SDS011;17573;55.922;37.540;2023-01-01T12:37:36;10.43;;;5.88;;
30862;SDS011;17573;55.922;37.540;2023-01-01T12:43:18;5.07;;;4.57;;
30862;SDS011;17573;55.922;37.540;2023-01-01T12:52:11;6.15;;;5.55;;
30862;SDS011;17573;55.922;37.540;2023-01-01T12:55:00;6.57;;;5.20;;
30862;SDS011;17573;55.922;37.540;2023-01-01T13:00:53;6.38;;;4.80;;
30862;SDS011;17573;55.922;37.540;2023-01-01T13:03:58;7.78;;;5.35;;
30862;SDS011;17573;55.922;37.540;2023-01-01T13:06:43;7.75;;;5.03;;
30862;SDS011;17573;55.922;37.540;2023-01-01T13:09:47;6.47;;;4.57;;
30862;SDS011;17573;55.922;37.540;2023-01-01T13:12:20;9.02;;;5.30;;
30862;SDS011;17573;55.922;37.540;2023-01-01T13:15:33;9.75;;;5.55;;
30862;SDS011;17573;55.922;37.540;2023-01-01T13:21:06;6.10;;;5.50;;
30862;SDS011;17573;55.922;37.540;2023-01-01T13:23:49;6.18;;;5.57;;
30862;SDS011;17573;55.922;37.540;2023-01-01T13:26:42;6.90;;;5.50;;
30862;SDS011;17573;55.922;37.540;2023-01-01T13:32:11;5.53;;;5.00;;
30862;SDS011;17573;55.922;37.540;2023-01-01T13:35:00;5.18;;;4.38;;
30862;SDS011;17573;55.922;37.540;2023-01-01T13:37:53;6.45;;;4.38;;
30862;SDS011;17573;55.922;37.540;2023-01-01T13:40:30;7.78;;;5.47;;
30862;SDS011;17573;55.922;37.540;2023-01-01T13:43:25;5.22;;;4.72;;
30862;SDS011;17573;55.922;37.540;2023-01-01T13:45:58;8.57;;;5.20;;
30862;SDS011;17573;55.922;37.540;2023-01-01T13:52:08;7.93;;;5.65;;
30862;SDS011;17573;55.922;37.540;2023-01-01T13:58:19;5.65;;;4.95;;
30862;SDS011;17573;55.922;37.540;2023-01-01T14:04:44;6.60;;;5.05;;
30862;SDS011;17573;55.922;37.540;2023-01-01T14:13:25;7.07;;;5.30;;
30862;SDS011;17573;55.922;37.540;2023-01-01T14:16:00;5.53;;;4.85;;
30862;SDS011;17573;55.922;37.540;2023-01-01T14:18:58;7.15;;;5.47;;
30862;SDS011;17573;55.922;37.540;2023-01-01T14:21:31;5.28;;;4.70;;
30862;SDS011;17573;55.922;37.540;2023-01-01T14:24:26;7.20;;;5.13;;
30862;SDS011;17573;55.922;37.540;2023-01-01T14:26:59;7.85;;;5.05;;
30862;SDS011;17573;55.922;37.540;2023-01-01T14:29:51;10.35;;;4.95;;
30862;SDS011;17573;55.922;37.540;2023-01-01T14:32:25;5.93;;;5.22;;
30862;SDS011;17573;55.922;37.540;2023-01-01T14:35:17;7.35;;;5.50;;
30862;SDS011;17573;55.922;37.540;2023-01-01T14:37:50;7.65;;;5.65;;
30862;SDS011;17573;55.922;37.540;2023-01-01T14:40:42;9.32;;;5.60;;
30862;SDS011;17573;55.922;37.540;2023-01-01T14:43:15;6.03;;;5.43;;
30862;SDS011;17573;55.922;37.540;2023-01-01T14:46:12;9.35;;;6.00;;
30862;SDS011;17573;55.922;37.540;2023-01-01T14:48:54;7.72;;;6.40;;
30862;SDS011;17573;55.922;37.540;2023-01-01T14:51:51;9.73;;;5.82;;
30862;SDS011;17573;55.922;37.540;2023-01-01T14:54:29;5.82;;;5.05;;
30862;SDS011;17573;55.922;37.540;2023-01-01T14:57:26;6.75;;;5.05;;
30862;SDS011;17573;55.922;37.540;2023-01-01T15:00:01;6.53;;;5.03;;
30862;SDS011;17573;55.922;37.540;2023-01-01T15:03:03;11.48;;;5.13;;
30862;SDS011;17573;55.922;37.540;2023-01-01T15:05:37;11.68;;;5.72;;
30862;SDS011;17573;55.922;37.540;2023-01-01T15:08:31;5.63;;;5.05;;
30862;SDS011;17573;55.922;37.540;2023-01-01T15:11:04;5.40;;;4.90;;
30862;SDS011;17573;55.922;37.540;2023-01-01T15:13:58;4.88;;;4.45;;
30862;SDS011;17573;55.922;37.540;2023-01-01T15:16:32;6.28;;;5.60;;
30862;SDS011;17573;55.922;37.540;2023-01-01T15:19:24;5.25;;;4.75;;
30862;SDS011;17573;55.922;37.540;2023-01-01T15:21:57;6.13;;;5.30;;
30862;SDS011;17573;55.922;37.540;2023-01-01T15:24:50;6.03;;;5.22;;
30862;SDS011;17573;55.922;37.540;2023-01-01T15:27:24;5.82;;;5.10;;
30862;SDS011;17573;55.922;37.540;2023-01-01T15:30:22;12.00;;;7.68;;
30862;SDS011;17573;55.922;37.540;2023-01-01T15:33:05;12.20;;;9.13;;
30862;SDS011;17573;55.922;37.540;2023-01-01T15:38:35;12.18;;;7.13;;
30862;SDS011;17573;55.922;37.540;2023-01-01T15:41:41;5.63;;;5.03;;
30862;SDS011;17573;55.922;37.540;2023-01-01T15:44:26;5.97;;;5.40;;
30862;SDS011;17573;55.922;37.540;2023-01-01T15:47:20;8.52;;;7.07;;
30862;SDS011;17573;55.922;37.540;2023-01-01T15:50:10;8.27;;;6.40;;
30862;SDS011;17573;55.922;37.540;2023-01-01T15:53:14;8.88;;;7.97;;
30862;SDS011;17573;55.922;37.540;2023-01-01T15:55:57;13.63;;;9.20;;
30862;SDS011;17573;55.922;37.540;2023-01-01T15:58:52;13.20;;;8.27;;
30862;SDS011;17573;55.922;37.540;2023-01-01T16:01:30;10.23;;;9.23;;
30862;SDS011;17573;55.922;37.540;2023-01-01T16:04:25;9.15;;;7.88;;
30862;SDS011;17573;55.922;37.540;2023-01-01T16:06:59;13.52;;;10.63;;
30862;SDS011;17573;55.922;37.540;2023-01-01T16:09:52;12.00;;;9.52;;
30862;SDS011;17573;55.922;37.540;2023-01-01T16:12:25;16.10;;;10.30;;
30862;SDS011;17573;55.922;37.540;2023-01-01T16:15:17;9.88;;;8.32;;
30862;SDS011;17573;55.922;37.540;2023-01-01T16:17:50;15.43;;;6.82;;
30862;SDS011;17573;55.922;37.540;2023-01-01T16:20:43;6.82;;;6.18;;
30862;SDS011;17573;55.922;37.540;2023-01-01T16:23:16;6.63;;;5.63;;
30862;SDS011;17573;55.922;37.540;2023-01-01T16:26:09;6.13;;;4.95;;
30862;SDS011;17573;55.922;37.540;2023-01-01T16:28:42;8.10;;;4.82;;
30862;SDS011;17573;55.922;37.540;2023-01-01T16:31:35;9.10;;;5.78;;
30862;SDS011;17573;55.922;37.540;2023-01-01T16:34:14;8.20;;;5.82;;
30862;SDS011;17573;55.922;37.540;2023-01-01T16:37:06;6.68;;;5.32;;
30862;SDS011;17573;55.922;37.540;2023-01-01T16:39:39;5.00;;;4.45;;
30862;SDS011;17573;55.922;37.540;2023-01-01T16:42:31;6.00;;;5.50;;
30862;SDS011;17573;55.922;37.540;2023-01-01T16:45:04;7.53;;;5.95;;
30862;SDS011;17573;55.922;37.540;2023-01-01T16:47:57;6.88;;;5.40;;
30862;SDS011;17573;55.922;37.540;2023-01-01T16:50:30;6.53;;;5.25;;
30862;SDS011;17573;55.922;37.540;2023-01-01T16:53:22;6.80;;;5.70;;
30862;SDS011;17573;55.922;37.540;2023-01-01T16:55:55;7.78;;;6.00;;
30862;SDS011;17573;55.922;37.540;2023-01-01T16:58:48;7.45;;;5.90;;
30862;SDS011;17573;55.922;37.540;2023-01-01T17:01:21;11.00;;;7.82;;
30862;SDS011;17573;55.922;37.540;2023-01-01T17:04:14;11.88;;;6.18;;
30862;SDS011;17573;55.922;37.540;2023-01-01T17:06:47;9.25;;;6.82;;
30862;SDS011;17573;55.922;37.540;2023-01-01T17:09:40;6.53;;;5.63;;
30862;SDS011;17573;55.922;37.540;2023-01-01T17:12:13;9.68;;;5.70;;
30862;SDS011;17573;55.922;37.540;2023-01-01T17:15:06;6.95;;;6.13;;
30862;SDS011;17573;55.922;37.540;2023-01-01T17:17:38;7.82;;;6.43;;
30862;SDS011;17573;55.922;37.540;2023-01-01T17:20:33;5.82;;;5.28;;
30862;SDS011;17573;55.922;37.540;2023-01-01T17:23:05;6.63;;;5.53;;
30862;SDS011;17573;55.922;37.540;2023-01-01T17:26:03;8.00;;;5.55;;
30862;SDS011;17573;55.922;37.540;2023-01-01T17:28:40;6.15;;;5.13;;
30862;SDS011;17573;55.922;37.540;2023-01-01T17:31:34;8.05;;;6.03;;
30862;SDS011;17573;55.922;37.540;2023-01-01T17:34:06;9.65;;;7.35;;
30862;SDS011;17573;55.922;37.540;2023-01-01T17:36:59;7.40;;;6.68;;
30862;SDS011;17573;55.922;37.540;2023-01-01T17:39:31;9.63;;;8.63;;
30862;SDS011;17573;55.922;37.540;2023-01-01T17:42:23;9.05;;;8.05;;
30862;SDS011;17573;55.922;37.540;2023-01-01T17:44:56;11.98;;;9.68;;